createdAt,value
2022-08-20T00:02:11.256Z,83.50
2022-08-20T00:04:39.428Z,83.47
2022-08-20T00:07:06.578Z,84.20
2022-08-20T00:09:33.388Z,83.71
2022-08-20T00:12:04.243Z,84.02
2022-08-20T00:14:30.865Z,84.20
2022-08-20T00:17:02.171Z,84.00
2022-08-20T00:19:29.387Z,84.70
2022-08-20T00:21:58.147Z,84.62
2022-08-20T00:24:25.125Z,84.37
2022-08-20T00:26:52.803Z,84.61
2022-08-20T00:29:20.215Z,84.63
2022-08-20T00:31:46.972Z,84.22
2022-08-20T00:34:14.871Z,84.63
2022-08-20T00:36:41.457Z,84.79
2022-08-20T00:39:08.051Z,84.67
2022-08-20T00:41:34.642Z,85.01
2022-08-20T00:44:07.972Z,84.41
2022-08-20T00:46:35.533Z,84.90
2022-08-20T00:49:03.035Z,84.81
2022-08-20T00:51:35.561Z,84.78
2022-08-20T00:54:06.725Z,84.99
2022-08-20T00:56:33.930Z,85.04
2022-08-20T00:59:01.302Z,85.21
2022-08-20T01:01:28.200Z,84.75
2022-08-20T01:03:54.909Z,85.02
2022-08-20T01:06:21.523Z,84.72
2022-08-20T01:08:49.448Z,84.88
2022-08-20T01:11:15.973Z,84.89
2022-08-20T01:13:44.717Z,85.02
2022-08-20T01:16:18.746Z,84.90
2022-08-20T01:18:47.252Z,85.42
2022-08-20T01:21:14.586Z,84.91
2022-08-20T01:23:47.368Z,85.24
2022-08-20T01:26:18.929Z,85.14
2022-08-20T01:28:49.341Z,85.28
2022-08-20T01:31:20.135Z,84.84
2022-08-20T01:33:48.333Z,84.69
2022-08-20T01:36:16.936Z,85.02
2022-08-20T01:38:54.178Z,84.84
2022-08-20T01:41:44.133Z,85.27
2022-08-20T01:44:16.799Z,84.73
2022-08-20T01:46:48.252Z,85.01
2022-08-20T01:49:23.115Z,85.20
2022-08-20T01:51:51.371Z,84.66
2022-08-20T01:54:18.122Z,85.22
2022-08-20T01:56:57.097Z,84.50
2022-08-20T01:59:24.044Z,84.85
2022-08-20T02:01:51.696Z,84.94
2022-08-20T02:04:19.369Z,84.60
2022-08-20T02:06:56.598Z,84.42
2022-08-20T02:09:24.922Z,84.82
2022-08-20T02:11:52.885Z,85.09
2022-08-20T02:14:19.754Z,84.94
2022-08-20T02:16:54.768Z,84.62
2022-08-20T02:19:25.716Z,84.75
2022-08-20T02:21:56.651Z,85.43
2022-08-20T02:24:23.203Z,85.32
2022-08-20T02:26:50.980Z,85.17
2022-08-20T02:29:18.904Z,85.35
2022-08-20T02:32:24.351Z,84.78
2022-08-20T02:34:33.110Z,85.16
2022-08-20T02:36:59.684Z,84.77
2022-08-20T02:39:26.210Z,84.98
2022-08-20T02:41:53.446Z,85.21
2022-08-20T02:44:21.360Z,84.76
2022-08-20T02:46:48.269Z,84.86
2022-08-20T02:49:14.802Z,85.33
2022-08-20T02:51:41.385Z,85.45
2022-08-20T02:54:07.925Z,85.50
2022-08-20T02:56:35.092Z,85.40
2022-08-20T02:59:01.673Z,85.45
2022-08-20T03:01:29.635Z,85.44
2022-08-20T03:03:56.243Z,85.35
2022-08-20T03:06:22.946Z,85.32
2022-08-20T03:08:49.795Z,85.51
2022-08-20T03:11:16.438Z,85.44
2022-08-20T03:13:43.469Z,85.03
2022-08-20T03:16:10.640Z,85.27
2022-08-20T03:18:41.341Z,85.33
2022-08-20T03:21:09.886Z,84.96
2022-08-20T03:23:37.356Z,85.52
2022-08-20T03:26:08.905Z,85.45
2022-08-20T03:28:36.208Z,85.19
2022-08-20T03:31:03.301Z,85.07
2022-08-20T03:33:29.956Z,85.42
2022-08-20T03:35:58.200Z,85.59
2022-08-20T03:38:32.960Z,85.31
2022-08-20T03:41:01.054Z,85.29
2022-08-20T03:43:27.919Z,85.43
2022-08-20T03:45:54.774Z,85.52
2022-08-20T03:48:24.747Z,85.27
2022-08-20T03:50:51.497Z,85.25
2022-08-20T03:53:19.720Z,85.62
2022-08-20T03:55:53.903Z,85.75
2022-08-20T03:58:22.030Z,85.22
2022-08-20T04:01:01.948Z,85.27
2022-08-20T04:03:28.719Z,85.56
2022-08-20T04:05:55.249Z,85.79
2022-08-20T04:08:24.967Z,85.54
2022-08-20T04:10:51.888Z,85.39
2022-08-20T04:13:19.977Z,85.36
2022-08-20T04:15:50.011Z,85.68
2022-08-20T04:18:17.525Z,85.55
2022-08-20T04:20:44.113Z,85.88
2022-08-20T04:23:10.650Z,85.88
2022-08-20T04:25:38.664Z,85.32
2022-08-20T04:28:14.233Z,85.92
2022-08-20T04:30:41.406Z,85.79
2022-08-20T04:33:14.125Z,85.47
2022-08-20T04:35:45.823Z,85.78
2022-08-20T04:38:16.115Z,85.37
2022-08-20T04:40:44.339Z,85.61
2022-08-20T04:43:10.926Z,85.65
2022-08-20T04:45:39.456Z,85.64
2022-08-20T04:48:06.568Z,85.49
2022-08-20T04:50:33.897Z,85.40
2022-08-20T04:53:00.708Z,85.20
2022-08-20T04:55:27.299Z,85.60
2022-08-20T04:57:55.337Z,85.96
2022-08-20T05:00:21.998Z,85.92
2022-08-20T05:02:48.590Z,85.31
2022-08-20T05:05:15.228Z,85.55
2022-08-20T05:07:44.468Z,85.59
2022-08-20T05:10:13.123Z,85.78
2022-08-20T05:12:40.837Z,85.55
2022-08-20T05:15:10.245Z,85.44
2022-08-20T05:17:37.190Z,85.61
2022-08-20T05:20:05.260Z,86.09
2022-08-20T05:22:31.770Z,86.17
2022-08-20T05:24:58.442Z,85.30
2022-08-20T05:27:25.312Z,85.81
2022-08-20T05:29:51.864Z,85.49
2022-08-20T05:44:35.547Z,84.97
2022-08-20T05:47:02.136Z,85.03
2022-08-20T05:49:32.402Z,85.20
2022-08-20T05:51:58.998Z,85.05
2022-08-20T05:54:25.717Z,85.41
2022-08-20T05:56:52.205Z,85.57
2022-08-20T05:59:23.550Z,84.90
2022-08-20T06:01:50.990Z,85.34
2022-08-20T06:04:17.590Z,85.02
2022-08-20T06:06:47.347Z,85.37
2022-08-20T06:09:15.683Z,85.00
2022-08-20T06:11:42.363Z,84.71
2022-08-20T06:14:09.245Z,85.12
2022-08-20T06:16:37.431Z,84.83
2022-08-20T06:19:05.207Z,85.04
2022-08-20T06:21:32.034Z,84.59
2022-08-20T06:24:00.509Z,85.02
2022-08-20T06:26:29.864Z,84.59
2022-08-20T06:28:57.813Z,84.89
2022-08-20T06:31:24.376Z,84.80
2022-08-20T06:33:50.905Z,84.94
2022-08-20T06:36:18.788Z,85.26
2022-08-20T06:38:45.804Z,85.33
2022-08-20T06:41:13.789Z,85.43
2022-08-20T06:43:40.367Z,84.63
2022-08-20T06:46:07.033Z,84.45
2022-08-20T06:48:33.802Z,85.18
2022-08-20T06:51:00.691Z,84.43
2022-08-20T06:53:27.199Z,84.46
2022-08-20T06:55:56.301Z,84.33
2022-08-20T06:58:37.322Z,84.11
2022-08-20T07:01:09.938Z,84.50
2022-08-20T07:03:37.738Z,84.14
2022-08-20T07:06:04.506Z,84.31
2022-08-20T07:08:31.103Z,83.73
2022-08-20T07:10:57.936Z,83.82
2022-08-20T07:13:25.961Z,83.95
2022-08-20T07:15:54.081Z,83.51
2022-08-20T07:18:28.445Z,83.44
2022-08-20T07:20:55.172Z,83.76
2022-08-20T07:23:21.801Z,82.91
2022-08-20T07:25:48.379Z,83.32
2022-08-20T07:28:18.710Z,83.35
2022-08-20T07:30:55.795Z,82.78
2022-08-20T07:33:24.564Z,82.30
2022-08-20T07:35:51.218Z,82.12
2022-08-20T07:38:21.082Z,82.52
2022-08-20T07:40:47.913Z,83.02
2022-08-20T07:43:14.504Z,82.91
2022-08-20T07:45:41.070Z,82.31
2022-08-20T07:48:28.020Z,81.79
2022-08-20T07:51:00.191Z,82.24
2022-08-20T07:53:28.638Z,82.13
2022-08-20T07:55:59.431Z,81.93
2022-08-20T07:58:33.181Z,82.78
2022-08-20T08:01:00.375Z,82.35
2022-08-20T08:03:39.494Z,82.46
2022-08-20T08:06:15.050Z,81.77
2022-08-20T08:08:43.904Z,80.92
2022-08-20T08:11:12.113Z,81.33
2022-08-20T08:13:41.915Z,81.31
2022-08-20T08:16:09.867Z,81.85
2022-08-20T08:18:41.705Z,81.88
2022-08-20T08:21:09.670Z,81.86
2022-08-20T08:23:36.246Z,80.15
2022-08-20T08:26:02.969Z,80.52
2022-08-20T08:28:29.564Z,79.72
2022-08-20T08:30:56.467Z,79.71
2022-08-20T08:33:25.932Z,79.57
2022-08-20T08:35:54.044Z,80.00
2022-08-20T08:38:20.663Z,79.13
2022-08-20T08:40:47.239Z,79.51
2022-08-20T08:43:21.384Z,80.33
2022-08-20T08:45:54.509Z,79.32
2022-08-20T08:48:21.532Z,79.07
2022-08-20T08:50:53.909Z,79.56
2022-08-20T08:53:26.065Z,78.46
2022-08-20T08:55:52.639Z,78.27
2022-08-20T08:58:19.218Z,78.33
2022-08-20T09:00:52.737Z,77.86
2022-08-20T09:03:27.289Z,77.81
2022-08-20T09:05:57.529Z,78.65
2022-08-20T09:08:29.533Z,78.15
2022-08-20T09:11:02.097Z,77.59
2022-08-20T09:13:28.640Z,78.81
2022-08-20T09:15:55.347Z,77.74
2022-08-20T09:18:21.911Z,76.52
2022-08-20T09:20:48.490Z,77.55
2022-08-20T09:23:15.137Z,76.34
2022-08-20T09:25:43.048Z,76.83
2022-08-20T09:28:09.842Z,76.66
2022-08-20T09:30:36.426Z,75.83
2022-08-20T09:33:04.827Z,75.98
2022-08-20T09:35:31.375Z,76.02
2022-08-20T09:37:58.054Z,76.04
2022-08-20T09:40:24.747Z,75.54
2022-08-20T09:42:52.730Z,75.69
2022-08-20T09:45:19.720Z,75.84
2022-08-20T09:47:54.940Z,75.70
2022-08-20T09:50:24.269Z,74.51
2022-08-20T09:52:53.968Z,74.84
2022-08-20T09:55:31.457Z,74.85
2022-08-20T09:58:00.511Z,74.24
2022-08-20T10:00:27.175Z,74.65
2022-08-20T10:02:53.791Z,74.26
2022-08-20T10:05:20.380Z,74.02
2022-08-20T10:07:46.950Z,74.28
2022-08-20T10:10:15.452Z,75.13
2022-08-20T10:12:42.111Z,73.61
2022-08-20T10:15:11.311Z,73.99
2022-08-20T10:17:38.933Z,73.50
2022-08-20T10:20:06.796Z,72.11
2022-08-20T10:22:33.380Z,72.27
2022-08-20T10:25:00.150Z,72.06
2022-08-20T10:27:26.842Z,71.27
2022-08-20T10:29:53.507Z,71.30
2022-08-20T10:32:21.495Z,70.57
2022-08-20T10:34:48.392Z,71.04
2022-08-20T10:37:15.902Z,71.08
2022-08-20T10:39:43.047Z,70.25
2022-08-20T10:42:09.669Z,70.92
2022-08-20T10:44:36.525Z,70.67
2022-08-20T10:47:14.573Z,68.62
2022-08-20T10:49:42.445Z,68.75
2022-08-20T10:52:09.151Z,67.91
2022-08-20T10:54:35.759Z,68.59
2022-08-20T10:57:02.389Z,67.87
2022-08-20T10:59:28.979Z,66.99
2022-08-20T11:01:55.657Z,66.86
2022-08-20T11:04:22.322Z,67.55
2022-08-20T11:06:50.272Z,67.71
2022-08-20T11:09:16.955Z,66.84
2022-08-20T11:11:43.657Z,66.67
2022-08-20T11:14:10.346Z,68.30
2022-08-20T11:16:36.910Z,66.48
2022-08-20T11:19:03.645Z,67.12
2022-08-20T11:21:30.225Z,67.07
2022-08-20T11:24:02.307Z,66.20
2022-08-20T11:26:29.768Z,65.70
2022-08-20T11:28:56.392Z,66.59
2022-08-20T11:31:23.136Z,66.99
2022-08-20T11:33:49.741Z,67.58
2022-08-20T11:36:18.359Z,68.54
2022-08-20T11:38:44.897Z,67.15
2022-08-20T11:41:13.209Z,67.34
2022-08-20T11:43:40.859Z,67.86
2022-08-20T11:46:07.560Z,67.63
2022-08-20T11:48:34.140Z,67.86
2022-08-20T11:51:00.736Z,68.30
2022-08-20T11:53:27.363Z,68.21
2022-08-20T11:55:55.317Z,68.68
2022-08-20T11:58:23.650Z,69.09
2022-08-20T12:00:50.258Z,67.51
2022-08-20T12:03:17.102Z,68.24
2022-08-20T12:05:45.571Z,67.51
2022-08-20T12:08:26.684Z,67.10
2022-08-20T12:10:55.354Z,66.86
2022-08-20T12:13:24.221Z,67.05
2022-08-20T12:15:58.348Z,67.13
2022-08-20T12:18:27.011Z,67.17
2022-08-20T12:20:54.018Z,67.67
2022-08-20T12:23:20.657Z,68.13
2022-08-20T12:25:47.506Z,67.79
2022-08-20T12:28:15.138Z,68.72
2022-08-20T12:30:43.246Z,67.94
2022-08-20T12:33:09.819Z,68.47
2022-08-20T12:35:36.495Z,68.28
2022-08-20T12:38:04.286Z,68.84
2022-08-20T12:40:32.902Z,68.35
2022-08-20T12:42:59.888Z,68.26
2022-08-20T12:45:26.558Z,69.15
2022-08-20T12:48:01.342Z,70.08
2022-08-20T12:50:31.428Z,68.75
2022-08-20T12:52:58.730Z,68.97
2022-08-20T12:55:25.870Z,68.77
2022-08-20T12:57:54.015Z,69.59
2022-08-20T13:00:24.246Z,69.99
2022-08-20T13:02:52.580Z,69.34
2022-08-20T13:05:21.424Z,69.71
2022-08-20T13:07:48.840Z,69.69
2022-08-20T13:10:18.019Z,69.60
2022-08-20T13:12:44.805Z,69.84
2022-08-20T13:15:12.182Z,69.99
2022-08-20T13:17:39.704Z,70.56
2022-08-20T13:20:10.201Z,71.06
2022-08-20T13:22:38.198Z,71.01
2022-08-20T13:25:06.065Z,71.27
2022-08-20T13:27:33.041Z,71.42
2022-08-20T13:29:59.641Z,70.52
2022-08-20T13:32:26.363Z,70.97
2022-08-20T13:34:53.267Z,70.82
2022-08-20T13:37:25.118Z,71.68
2022-08-20T13:39:54.042Z,70.82
2022-08-20T13:42:22.027Z,71.16
2022-08-20T13:44:52.843Z,71.95
2022-08-20T13:47:22.090Z,71.94
2022-08-20T13:49:55.491Z,71.70
2022-08-20T13:52:21.850Z,71.79
2022-08-20T13:54:48.526Z,71.69
2022-08-20T13:57:18.967Z,72.12
2022-08-20T13:59:50.430Z,71.48
2022-08-20T14:02:17.730Z,71.80
2022-08-20T14:04:45.122Z,72.26
2022-08-20T14:07:13.369Z,73.20
2022-08-20T14:09:41.268Z,72.70
2022-08-20T14:12:08.863Z,73.19
2022-08-20T14:14:37.206Z,71.95
2022-08-20T14:17:14.316Z,72.66
2022-08-20T14:19:42.036Z,72.22
2022-08-20T14:22:08.700Z,71.43
2022-08-20T14:24:35.356Z,72.08
2022-08-20T14:27:03.092Z,72.17
2022-08-20T14:29:32.225Z,70.99
2022-08-20T14:32:05.844Z,72.35
2022-08-20T14:34:33.560Z,72.13
2022-08-20T14:37:09.991Z,71.89
2022-08-20T14:39:36.825Z,71.83
2022-08-20T14:42:03.567Z,72.16
2022-08-20T14:44:30.144Z,72.78
2022-08-20T14:46:56.828Z,73.35
2022-08-20T14:49:24.820Z,73.37
2022-08-20T14:51:51.424Z,73.09
2022-08-20T14:54:18.012Z,71.96
2022-08-20T14:56:44.624Z,71.35
2022-08-20T14:59:11.314Z,71.64
2022-08-20T15:01:37.945Z,71.13
2022-08-20T15:04:04.729Z,70.78
2022-08-20T15:06:34.963Z,70.78
2022-08-20T15:09:05.593Z,70.86
2022-08-20T15:11:34.596Z,71.18
2022-08-20T15:14:03.076Z,71.71
2022-08-20T15:16:29.683Z,70.89
2022-08-20T15:18:59.632Z,70.75
2022-08-20T15:21:27.539Z,70.37
2022-08-20T15:23:58.349Z,70.32
2022-08-20T15:26:24.998Z,71.05
2022-08-20T15:28:51.919Z,71.95
2022-08-20T15:31:18.584Z,72.21
2022-08-20T15:33:45.210Z,72.96
2022-08-20T15:36:12.081Z,72.44
2022-08-20T15:38:38.648Z,71.74
2022-08-20T15:41:06.828Z,72.55
2022-08-20T15:43:33.916Z,72.81
2022-08-20T15:46:03.637Z,73.22
2022-08-20T15:48:32.939Z,72.72
2022-08-20T15:51:14.548Z,72.20
2022-08-20T15:53:52.070Z,72.56
2022-08-20T15:56:31.768Z,72.38
2022-08-20T15:59:09.284Z,71.55
2022-08-20T16:01:44.524Z,71.76
2022-08-20T16:04:28.417Z,71.80
2022-08-20T16:07:01.005Z,71.51
2022-08-20T16:09:42.096Z,71.14
2022-08-20T16:12:13.557Z,71.11
2022-08-20T16:14:42.480Z,71.88
2022-08-20T16:17:14.057Z,71.44
2022-08-20T16:19:50.995Z,71.41
2022-08-20T16:22:19.584Z,71.89
2022-08-20T16:24:46.695Z,71.32
2022-08-20T16:27:24.349Z,71.82
2022-08-20T16:29:59.698Z,72.08
2022-08-20T16:32:36.143Z,72.42
2022-08-20T16:35:28.994Z,73.29
2022-08-20T16:37:59.431Z,73.01
2022-08-20T16:40:30.077Z,73.23
2022-08-20T16:43:01.854Z,72.67
2022-08-20T16:45:32.535Z,73.43
2022-08-20T16:48:01.735Z,73.28
2022-08-20T16:50:33.513Z,73.10
2022-08-20T16:53:00.723Z,72.68
2022-08-20T16:55:27.769Z,73.61
2022-08-20T16:57:54.772Z,73.65
2022-08-20T17:00:26.879Z,73.79
2022-08-20T17:02:56.198Z,73.49
2022-08-20T17:05:26.073Z,73.17
2022-08-20T17:07:58.829Z,73.13
2022-08-20T17:10:28.573Z,73.00
2022-08-20T17:12:57.932Z,73.36
2022-08-20T17:15:29.316Z,72.88
2022-08-20T17:17:56.108Z,72.85
2022-08-20T17:20:25.521Z,72.71
2022-08-20T17:23:12.615Z,71.36
2022-08-20T17:25:40.193Z,71.41
2022-08-20T17:28:14.571Z,71.37
2022-08-20T17:30:42.788Z,71.04
2022-08-20T17:33:22.414Z,70.57
2022-08-20T17:35:52.769Z,70.60
2022-08-20T17:38:32.257Z,71.28
2022-08-20T17:41:00.597Z,71.00
2022-08-20T17:43:29.373Z,71.29
2022-08-20T17:45:58.855Z,71.37
2022-08-20T17:48:29.451Z,71.96
2022-08-20T17:50:57.960Z,71.52
2022-08-20T17:53:28.437Z,71.52
2022-08-20T17:56:00.843Z,72.13
2022-08-20T17:58:41.766Z,71.43
2022-08-20T18:01:26.158Z,71.59
2022-08-20T18:03:53.315Z,72.21
2022-08-20T18:06:30.876Z,72.07
2022-08-20T18:09:03.312Z,72.62
2022-08-20T18:11:36.638Z,72.53
2022-08-20T18:14:14.096Z,72.23
2022-08-20T18:16:52.927Z,71.43
2022-08-20T18:19:47.874Z,72.31
2022-08-20T18:22:18.395Z,71.85
2022-08-20T18:24:51.883Z,72.41
2022-08-20T18:27:22.029Z,72.10
2022-08-20T18:29:55.197Z,72.20
2022-08-20T18:32:30.024Z,73.07
2022-08-20T18:35:09.477Z,73.27
2022-08-20T18:37:36.218Z,73.33
2022-08-20T18:40:14.388Z,73.12
2022-08-20T18:42:41.129Z,72.81
2022-08-20T18:45:08.998Z,73.22
2022-08-20T18:47:45.483Z,73.57
2022-08-20T18:50:24.720Z,74.35
2022-08-20T18:53:05.147Z,73.73
2022-08-20T18:55:36.459Z,74.26
2022-08-20T18:58:04.959Z,74.13
2022-08-20T19:00:36.923Z,74.51
2022-08-20T19:03:16.103Z,74.07
2022-08-20T19:06:04.027Z,75.21
2022-08-20T19:08:41.010Z,75.06
2022-08-20T19:11:26.255Z,74.38
2022-08-20T19:14:19.010Z,74.75
2022-08-20T19:16:49.003Z,75.29
2022-08-20T19:19:18.714Z,75.25
2022-08-20T19:21:45.502Z,75.24
2022-08-20T19:24:17.979Z,75.46
2022-08-20T19:26:48.376Z,75.70
2022-08-20T19:29:20.729Z,76.23
2022-08-20T19:31:48.234Z,76.08
2022-08-20T19:34:22.424Z,76.09
2022-08-20T19:36:55.549Z,75.84
2022-08-20T19:39:25.511Z,76.65
2022-08-20T19:41:58.675Z,76.41
2022-08-20T19:44:30.289Z,75.48
2022-08-20T19:46:58.652Z,75.53
2022-08-20T19:49:36.321Z,75.66
2022-08-20T19:52:21.529Z,75.65
2022-08-20T19:54:50.483Z,75.69
2022-08-20T19:57:18.821Z,75.69
2022-08-20T19:59:55.399Z,75.87
2022-08-20T20:02:23.980Z,76.16
2022-08-20T20:04:55.261Z,76.21
2022-08-20T20:07:28.110Z,76.70
2022-08-20T20:09:57.962Z,77.18
2022-08-20T20:12:24.942Z,76.89
2022-08-20T20:14:54.002Z,76.90
2022-08-20T20:17:23.718Z,76.79
2022-08-20T20:19:54.042Z,76.92
2022-08-20T20:22:25.801Z,77.32
2022-08-20T20:25:02.039Z,77.68
2022-08-20T20:27:29.463Z,77.80
2022-08-20T20:30:01.205Z,77.48
2022-08-20T20:32:28.941Z,77.45
2022-08-20T20:35:00.027Z,77.79
2022-08-20T20:37:49.814Z,77.65
2022-08-20T20:40:23.923Z,76.90
2022-08-20T20:43:00.113Z,76.91
2022-08-20T20:45:32.509Z,77.27
2022-08-20T20:47:59.168Z,77.08
2022-08-20T20:50:30.128Z,76.85
2022-08-20T20:52:58.201Z,76.93
2022-08-20T20:55:28.380Z,76.51
2022-08-20T20:57:56.372Z,77.45
2022-08-20T21:00:25.220Z,77.58
2022-08-20T21:02:52.537Z,77.52
2022-08-20T21:05:20.506Z,77.41
2022-08-20T21:07:51.893Z,77.41
2022-08-20T21:10:20.241Z,77.15
2022-08-20T21:12:51.947Z,77.23
2022-08-20T21:15:20.042Z,77.48
2022-08-20T21:17:46.658Z,77.47
2022-08-20T21:20:13.319Z,77.23
2022-08-20T21:22:40.094Z,77.69
2022-08-20T21:25:08.741Z,77.51
2022-08-20T21:27:35.866Z,77.73
2022-08-20T21:30:04.329Z,77.41
2022-08-20T21:32:30.969Z,77.17
2022-08-20T21:34:57.492Z,77.60
2022-08-20T21:37:24.054Z,77.60
2022-08-20T21:39:50.608Z,77.50
2022-08-20T21:42:28.106Z,77.42
2022-08-20T21:44:56.045Z,77.34
2022-08-20T21:47:22.605Z,77.30
2022-08-20T21:49:49.268Z,77.43
2022-08-20T21:52:15.881Z,77.99
2022-08-20T21:54:42.468Z,77.57
2022-08-20T21:57:14.407Z,78.22
2022-08-20T21:59:42.538Z,77.50
2022-08-20T22:02:09.704Z,77.96
2022-08-20T22:04:36.316Z,78.03
2022-08-20T22:07:04.051Z,78.49
2022-08-20T22:09:31.224Z,77.79
2022-08-20T22:12:00.912Z,78.17
2022-08-20T22:14:27.764Z,78.33
2022-08-20T22:16:55.687Z,78.34
2022-08-20T22:19:22.487Z,78.46
2022-08-20T22:21:49.222Z,78.37
2022-08-20T22:24:15.792Z,78.31
2022-08-20T22:26:42.751Z,78.29
2022-08-20T22:29:11.262Z,78.73
2022-08-20T22:31:40.412Z,78.68
2022-08-20T22:34:08.773Z,78.70
2022-08-20T22:36:36.009Z,78.82
2022-08-20T22:39:02.658Z,78.57
2022-08-20T22:41:29.366Z,78.61
2022-08-20T22:43:57.446Z,78.73
2022-08-20T22:46:26.834Z,78.53
2022-08-20T22:48:54.252Z,79.45
2022-08-20T22:51:26.654Z,78.90
2022-08-20T22:53:53.353Z,79.04
2022-08-20T22:56:22.003Z,78.74
2022-08-20T22:58:50.071Z,79.21
2022-08-20T23:01:17.275Z,78.53
2022-08-20T23:03:43.912Z,78.68
2022-08-20T23:06:11.156Z,78.97
2022-08-20T23:08:40.031Z,78.97
2022-08-20T23:11:06.686Z,79.01
2022-08-20T23:13:33.362Z,78.67
2022-08-20T23:16:00.781Z,79.09
2022-08-20T23:18:27.617Z,78.54
2022-08-20T23:20:56.674Z,78.68
2022-08-20T23:23:24.031Z,78.86
2022-08-20T23:25:52.788Z,78.99
2022-08-20T23:28:21.847Z,78.72
2022-08-20T23:30:48.562Z,78.54
2022-08-20T23:33:15.834Z,78.83
2022-08-20T23:35:43.776Z,79.16
2022-08-20T23:38:10.348Z,78.49
2022-08-20T23:40:37.559Z,79.00
2022-08-20T23:43:06.109Z,78.94
2022-08-20T23:45:33.446Z,78.88
2022-08-20T23:48:00.203Z,78.73
2022-08-20T23:50:29.024Z,78.51
2022-08-20T23:52:56.706Z,78.25
2022-08-20T23:55:23.914Z,78.86
2022-08-20T23:57:51.449Z,78.29
